sensor_id;sensor_type;location;lat;lon;timestamp;temperature;humidity
30385;DHT22;17181;51.002;4.096;2023-02-22T02:31:20;7.00;99.90
30385;DHT22;17181;51.002;4.096;2023-02-22T02:33:53;7.00;99.90
30385;DHT22;17181;51.002;4.096;2023-02-22T02:41:53;7.00;99.90
30385;DHT22;17181;51.002;4.096;2023-02-22T02:45:06;7.00;99.90
30385;DHT22;17181;51.002;4.096;2023-02-22T02:47:16;7.00;99.90
30385;DHT22;17181;51.002;4.096;2023-02-22T02:50:01;7.00;99.90
30385;DHT22;17181;51.002;4.096;2023-02-22T02:52:28;7.10;99.90
30385;DHT22;17181;51.002;4.096;2023-02-22T02:54:57;7.00;99.90
30385;DHT22;17181;51.002;4.096;2023-02-22T02:57:23;7.10;99.90
30385;DHT22;17181;51.002;4.096;2023-02-22T02:59:50;7.10;99.90
30385;DHT22;17181;51.002;4.096;2023-02-22T03:10:37;7.00;99.90
30385;DHT22;17181;51.002;4.096;2023-02-22T03:13:30;7.00;99.90
30385;DHT22;17181;51.002;4.096;2023-02-22T03:18:58;7.00;99.90
30385;DHT22;17181;51.002;4.096;2023-02-22T03:21:52;7.00;99.90
30385;DHT22;17181;51.002;4.096;2023-02-22T03:24:38;7.00;99.90
30385;DHT22;17181;51.002;4.096;2023-02-22T03:30:07;6.90;99.90
30385;DHT22;17181;51.002;4.096;2023-02-22T03:32:38;6.90;99.90
30385;DHT22;17181;51.002;4.096;2023-02-22T03:35:13;6.90;99.90
30385;DHT22;17181;51.002;4.096;2023-02-22T03:37:44;6.90;99.90
30385;DHT22;17181;51.002;4.096;2023-02-22T03:40:16;6.90;99.90
30385;DHT22;17181;51.002;4.096;2023-02-22T03:42:48;6.80;99.90
30385;DHT22;17181;51.002;4.096;2023-02-22T03:45:17;6.90;99.90
30385;DHT22;17181;51.002;4.096;2023-02-22T03:47:49;6.90;99.90
30385;DHT22;17181;51.002;4.096;2023-02-22T03:50:23;6.90;99.90
30385;DHT22;17181;51.002;4.096;2023-02-22T03:52:51;6.90;99.90
30385;DHT22;17181;51.002;4.096;2023-02-22T03:55:23;6.90;99.90
30385;DHT22;17181;51.002;4.096;2023-02-22T03:57:53;6.90;99.90
30385;DHT22;17181;51.002;4.096;2023-02-22T04:00:25;6.80;99.90
30385;DHT22;17181;51.002;4.096;2023-02-22T04:02:51;6.90;99.90
30385;DHT22;17181;51.002;4.096;2023-02-22T04:05:19;6.90;99.90
30385;DHT22;17181;51.002;4.096;2023-02-22T04:07:46;6.90;99.90
30385;DHT22;17181;51.002;4.096;2023-02-22T04:10:14;6.90;99.90
30385;DHT22;17181;51.002;4.096;2023-02-22T04:12:40;6.90;99.90
30385;DHT22;17181;51.002;4.096;2023-02-22T04:15:08;6.80;99.90
30385;DHT22;17181;51.002;4.096;2023-02-22T04:17:35;6.90;99.90
30385;DHT22;17181;51.002;4.096;2023-02-22T04:20:02;6.90;99.90
30385;DHT22;17181;51.002;4.096;2023-02-22T04:22:39;6.80;99.90
30385;DHT22;17181;51.002;4.096;2023-02-22T04:25:05;6.90;99.90
30385;DHT22;17181;51.002;4.096;2023-02-22T04:27:32;6.80;99.90
30385;DHT22;17181;51.002;4.096;2023-02-22T04:29:59;6.90;99.90
30385;DHT22;17181;51.002;4.096;2023-02-22T04:32:26;6.90;99.90
30385;DHT22;17181;51.002;4.096;2023-02-22T04:34:52;6.80;99.90
30385;DHT22;17181;51.002;4.096;2023-02-22T04:37:18;6.80;99.90
30385;DHT22;17181;51.002;4.096;2023-02-22T04:39:44;6.90;99.90
30385;DHT22;17181;51.002;4.096;2023-02-22T04:42:10;6.90;99.90
30385;DHT22;17181;51.002;4.096;2023-02-22T04:44:36;6.80;99.90
30385;DHT22;17181;51.002;4.096;2023-02-22T04:47:03;6.80;99.90
30385;DHT22;17181;51.002;4.096;2023-02-22T04:49:29;6.90;99.90
30385;DHT22;17181;51.002;4.096;2023-02-22T04:51:55;6.80;99.90
30385;DHT22;17181;51.002;4.096;2023-02-22T04:54:26;6.80;99.90
30385;DHT22;17181;51.002;4.096;2023-02-22T04:56:52;6.90;99.90
30385;DHT22;17181;51.002;4.096;2023-02-22T04:59:17;6.80;99.90
30385;DHT22;17181;51.002;4.096;2023-02-22T05:01:46;6.80;99.90
30385;DHT22;17181;51.002;4.096;2023-02-22T05:04:12;6.80;99.90
30385;DHT22;17181;51.002;4.096;2023-02-22T05:06:38;6.90;99.90
30385;DHT22;17181;51.002;4.096;2023-02-22T05:09:03;6.80;99.90
30385;DHT22;17181;51.002;4.096;2023-02-22T05:11:29;6.90;99.90
30385;DHT22;17181;51.002;4.096;2023-02-22T05:13:55;6.80;99.90
30385;DHT22;17181;51.002;4.096;2023-02-22T05:16:21;6.80;99.90
30385;DHT22;17181;51.002;4.096;2023-02-22T05:18:46;6.80;99.90
30385;DHT22;17181;51.002;4.096;2023-02-22T05:21:12;6.80;99.90
30385;DHT22;17181;51.002;4.096;2023-02-22T05:23:38;6.70;99.90
30385;DHT22;17181;51.002;4.096;2023-02-22T05:26:04;6.70;99.90
30385;DHT22;17181;51.002;4.096;2023-02-22T05:28:31;6.70;99.90
30385;DHT22;17181;51.002;4.096;2023-02-22T05:30:57;6.80;99.90
30385;DHT22;17181;51.002;4.096;2023-02-22T05:33:22;6.70;99.90
30385;DHT22;17181;51.002;4.096;2023-02-22T05:35:48;6.70;99.90
30385;DHT22;17181;51.002;4.096;2023-02-22T05:38:15;6.70;99.90
30385;DHT22;17181;51.002;4.096;2023-02-22T05:40:41;6.60;99.90
30385;DHT22;17181;51.002;4.096;2023-02-22T05:43:08;6.60;99.90
30385;DHT22;17181;51.002;4.096;2023-02-22T05:45:33;6.60;99.90
30385;DHT22;17181;51.002;4.096;2023-02-22T05:48:01;6.50;99.90
30385;DHT22;17181;51.002;4.096;2023-02-22T05:50:27;6.60;99.90
30385;DHT22;17181;51.002;4.096;2023-02-22T05:52:53;6.60;99.90
30385;DHT22;17181;51.002;4.096;2023-02-22T05:55:21;6.50;99.90
30385;DHT22;17181;51.002;4.096;2023-02-22T05:57:47;6.50;99.90
30385;DHT22;17181;51.002;4.096;2023-02-22T06:00:22;6.50;99.90
30385;DHT22;17181;51.002;4.096;2023-02-22T06:03:04;6.50;99.90
30385;DHT22;17181;51.002;4.096;2023-02-22T06:05:31;6.50;99.90
30385;DHT22;17181;51.002;4.096;2023-02-22T06:07:58;6.50;99.90
30385;DHT22;17181;51.002;4.096;2023-02-22T06:10:24;6.50;99.90
30385;DHT22;17181;51.002;4.096;2023-02-22T06:12:51;6.50;99.90
30385;DHT22;17181;51.002;4.096;2023-02-22T06:15:18;6.60;99.90
30385;DHT22;17181;51.002;4.096;2023-02-22T06:17:44;6.60;99.90
30385;DHT22;17181;51.002;4.096;2023-02-22T06:20:13;6.60;99.90
30385;DHT22;17181;51.002;4.096;2023-02-22T06:22:40;6.60;99.90
30385;DHT22;17181;51.002;4.096;2023-02-22T06:25:06;6.70;99.90
30385;DHT22;17181;51.002;4.096;2023-02-22T06:27:33;6.60;99.90
30385;DHT22;17181;51.002;4.096;2023-02-22T06:30:00;6.60;99.90
30385;DHT22;17181;51.002;4.096;2023-02-22T06:32:26;6.70;99.90
30385;DHT22;17181;51.002;4.096;2023-02-22T06:34:52;6.70;99.90
30385;DHT22;17181;51.002;4.096;2023-02-22T06:37:18;6.70;99.90
30385;DHT22;17181;51.002;4.096;2023-02-22T06:39:44;6.70;99.90
30385;DHT22;17181;51.002;4.096;2023-02-22T06:42:10;6.70;99.90
30385;DHT22;17181;51.002;4.096;2023-02-22T06:44:35;6.80;99.90
30385;DHT22;17181;51.002;4.096;2023-02-22T06:47:01;6.70;99.90
30385;DHT22;17181;51.002;4.096;2023-02-22T06:49:27;6.80;99.90
30385;DHT22;17181;51.002;4.096;2023-02-22T06:51:53;6.80;99.90
30385;DHT22;17181;51.002;4.096;2023-02-22T06:54:19;6.80;99.90
30385;DHT22;17181;51.002;4.096;2023-02-22T06:56:46;6.80;99.90
30385;DHT22;17181;51.002;4.096;2023-02-22T06:59:11;6.80;99.90
30385;DHT22;17181;51.002;4.096;2023-02-22T07:01:42;6.80;99.90
30385;DHT22;17181;51.002;4.096;2023-02-22T07:04:08;6.80;99.90
30385;DHT22;17181;51.002;4.096;2023-02-22T07:06:34;6.80;99.90
30385;DHT22;17181;51.002;4.096;2023-02-22T07:09:01;6.80;99.90
30385;DHT22;17181;51.002;4.096;2023-02-22T07:11:26;6.80;99.90
30385;DHT22;17181;51.002;4.096;2023-02-22T07:13:52;6.80;99.90
30385;DHT22;17181;51.002;4.096;2023-02-22T07:16:19;6.80;99.90
30385;DHT22;17181;51.002;4.096;2023-02-22T07:18:45;6.80;99.90
30385;DHT22;17181;51.002;4.096;2023-02-22T07:21:11;6.80;99.90
30385;DHT22;17181;51.002;4.096;2023-02-22T07:23:37;6.80;99.90
30385;DHT22;17181;51.002;4.096;2023-02-22T07:26:03;6.80;99.90
30385;DHT22;17181;51.002;4.096;2023-02-22T07:28:30;6.80;99.90
30385;DHT22;17181;51.002;4.096;2023-02-22T07:30:56;6.80;99.90
30385;DHT22;17181;51.002;4.096;2023-02-22T07:33:21;6.80;99.90
30385;DHT22;17181;51.002;4.096;2023-02-22T07:35:49;6.90;99.90
30385;DHT22;17181;51.002;4.096;2023-02-22T07:38:17;7.00;99.90
30385;DHT22;17181;51.002;4.096;2023-02-22T07:40:44;6.90;99.90
30385;DHT22;17181;51.002;4.096;2023-02-22T07:45:40;7.00;99.90
30385;DHT22;17181;51.002;4.096;2023-02-22T07:48:06;7.10;99.90
30385;DHT22;17181;51.002;4.096;2023-02-22T07:50:33;7.10;99.90
30385;DHT22;17181;51.002;4.096;2023-02-22T07:53:12;7.10;99.90
30385;DHT22;17181;51.002;4.096;2023-02-22T07:55:38;7.20;99.90
30385;DHT22;17181;51.002;4.096;2023-02-22T07:58:06;7.30;99.90
30385;DHT22;17181;51.002;4.096;2023-02-22T08:00:37;7.30;99.90
30385;DHT22;17181;51.002;4.096;2023-02-22T08:03:10;7.30;99.90
30385;DHT22;17181;51.002;4.096;2023-02-22T08:05:38;7.40;99.90
30385;DHT22;17181;51.002;4.096;2023-02-22T08:08:05;7.50;99.90
30385;DHT22;17181;51.002;4.096;2023-02-22T08:10:31;7.40;99.90
30385;DHT22;17181;51.002;4.096;2023-02-22T08:12:58;7.50;99.90
30385;DHT22;17181;51.002;4.096;2023-02-22T08:15:29;7.50;99.90
30385;DHT22;17181;51.002;4.096;2023-02-22T08:17:56;7.50;99.90
30385;DHT22;17181;51.002;4.096;2023-02-22T08:20:23;7.50;99.90
30385;DHT22;17181;51.002;4.096;2023-02-22T08:22:49;7.60;99.90
30385;DHT22;17181;51.002;4.096;2023-02-22T08:25:16;7.60;99.90
30385;DHT22;17181;51.002;4.096;2023-02-22T08:27:42;7.70;99.90
30385;DHT22;17181;51.002;4.096;2023-02-22T08:30:14;7.80;99.90
30385;DHT22;17181;51.002;4.096;2023-02-22T08:32:40;7.80;99.90
30385;DHT22;17181;51.002;4.096;2023-02-22T08:35:07;7.80;99.90
30385;DHT22;17181;51.002;4.096;2023-02-22T08:37:33;7.80;99.90
30385;DHT22;17181;51.002;4.096;2023-02-22T08:39:58;7.90;99.90
30385;DHT22;17181;51.002;4.096;2023-02-22T08:42:24;7.90;99.90
30385;DHT22;17181;51.002;4.096;2023-02-22T08:44:50;8.00;99.90
30385;DHT22;17181;51.002;4.096;2023-02-22T08:47:16;8.00;99.90
30385;DHT22;17181;51.002;4.096;2023-02-22T08:49:41;8.20;99.90
30385;DHT22;17181;51.002;4.096;2023-02-22T08:52:08;8.20;99.90
30385;DHT22;17181;51.002;4.096;2023-02-22T08:54:33;8.20;99.90
30385;DHT22;17181;51.002;4.096;2023-02-22T08:56:59;8.20;99.90
30385;DHT22;17181;51.002;4.096;2023-02-22T08:59:25;8.30;99.90
30385;DHT22;17181;51.002;4.096;2023-02-22T09:01:51;8.40;99.90
30385;DHT22;17181;51.002;4.096;2023-02-22T09:04:17;8.50;99.90
30385;DHT22;17181;51.002;4.096;2023-02-22T09:06:43;8.50;99.90
30385;DHT22;17181;51.002;4.096;2023-02-22T09:09:13;8.60;99.90
30385;DHT22;17181;51.002;4.096;2023-02-22T09:11:38;8.70;99.90
30385;DHT22;17181;51.002;4.096;2023-02-22T09:14:04;8.80;99.90
30385;DHT22;17181;51.002;4.096;2023-02-22T09:16:30;8.90;99.90
30385;DHT22;17181;51.002;4.096;2023-02-22T09:18:55;9.00;99.90
30385;DHT22;17181;51.002;4.096;2023-02-22T09:21:21;9.10;99.90
30385;DHT22;17181;51.002;4.096;2023-02-22T09:23:47;9.20;99.90
30385;DHT22;17181;51.002;4.096;2023-02-22T09:26:13;9.20;99.90
30385;DHT22;17181;51.002;4.096;2023-02-22T09:28:41;9.30;99.90
30385;DHT22;17181;51.002;4.096;2023-02-22T09:31:07;9.40;99.90
30385;DHT22;17181;51.002;4.096;2023-02-22T09:33:33;9.50;99.90
30385;DHT22;17181;51.002;4.096;2023-02-22T09:35:58;9.60;99.90
30385;DHT22;17181;51.002;4.096;2023-02-22T09:38:25;9.60;99.90
30385;DHT22;17181;51.002;4.096;2023-02-22T09:44:15;9.70;99.90
30385;DHT22;17181;51.002;4.096;2023-02-22T09:46:44;9.80;99.90
30385;DHT22;17181;51.002;4.096;2023-02-22T09:49:26;9.80;99.90
30385;DHT22;17181;51.002;4.096;2023-02-22T09:52:16;9.90;99.90
30385;DHT22;17181;51.002;4.096;2023-02-22T09:54:46;10.00;99.90
30385;DHT22;17181;51.002;4.096;2023-02-22T09:57:37;10.00;99.90
30385;DHT22;17181;51.002;4.096;2023-02-22T10:00:16;10.10;99.90
30385;DHT22;17181;51.002;4.096;2023-02-22T10:06:10;10.30;99.90
30385;DHT22;17181;51.002;4.096;2023-02-22T10:08:37;10.30;99.90
30385;DHT22;17181;51.002;4.096;2023-02-22T10:24:53;10.80;99.90
30385;DHT22;17181;51.002;4.096;2023-02-22T10:27:29;10.80;99.90
30385;DHT22;17181;51.002;4.096;2023-02-22T10:30:17;10.90;99.90
30385;DHT22;17181;51.002;4.096;2023-02-22T10:32:48;11.00;99.90
30385;DHT22;17181;51.002;4.096;2023-02-22T10:35:20;11.00;99.90
30385;DHT22;17181;51.002;4.096;2023-02-22T10:37:50;11.00;99.90
30385;DHT22;17181;51.002;4.096;2023-02-22T10:40:22;11.10;99.90
30385;DHT22;17181;51.002;4.096;2023-02-22T10:43:04;11.20;99.90
30385;DHT22;17181;51.002;4.096;2023-02-22T10:45:31;11.20;99.90
30385;DHT22;17181;51.002;4.096;2023-02-22T10:48:25;11.30;99.90
30385;DHT22;17181;51.002;4.096;2023-02-22T10:50:53;11.40;99.90
30385;DHT22;17181;51.002;4.096;2023-02-22T10:53:21;11.40;99.90
30385;DHT22;17181;51.002;4.096;2023-02-22T10:58:57;11.50;99.90
30385;DHT22;17181;51.002;4.096;2023-02-22T11:03:57;11.60;99.90
30385;DHT22;17181;51.002;4.096;2023-02-22T11:06:23;11.60;99.90
30385;DHT22;17181;51.002;4.096;2023-02-22T11:08:49;11.70;99.90
30385;DHT22;17181;51.002;4.096;2023-02-22T11:11:23;11.70;99.90
30385;DHT22;17181;51.002;4.096;2023-02-22T11:13:54;11.80;99.90
30385;DHT22;17181;51.002;4.096;2023-02-22T11:16:27;11.80;99.90
30385;DHT22;17181;51.002;4.096;2023-02-22T11:21:40;11.80;99.90
30385;DHT22;17181;51.002;4.096;2023-02-22T11:24:09;11.80;99.90
30385;DHT22;17181;51.002;4.096;2023-02-22T11:26:59;11.90;99.90
30385;DHT22;17181;51.002;4.096;2023-02-22T11:29:30;11.90;99.90
30385;DHT22;17181;51.002;4.096;2023-02-22T11:32:14;11.90;99.90
30385;DHT22;17181;51.002;4.096;2023-02-22T11:34:45;11.90;99.90
30385;DHT22;17181;51.002;4.096;2023-02-22T11:40:14;12.00;99.90
30385;DHT22;17181;51.002;4.096;2023-02-22T11:42:44;12.10;99.90
30385;DHT22;17181;51.002;4.096;2023-02-22T11:45:19;12.20;99.90
30385;DHT22;17181;51.002;4.096;2023-02-22T11:47:53;12.30;99.90
30385;DHT22;17181;51.002;4.096;2023-02-22T11:50:27;12.30;99.90
30385;DHT22;17181;51.002;4.096;2023-02-22T11:53:08;12.40;99.90
30385;DHT22;17181;51.002;4.096;2023-02-22T12:01:22;12.50;99.90
30385;DHT22;17181;51.002;4.096;2023-02-22T12:15:25;12.70;99.90
30385;DHT22;17181;51.002;4.096;2023-02-22T12:18:20;12.70;99.90
30385;DHT22;17181;51.002;4.096;2023-02-22T12:21:01;12.80;99.90
30385;DHT22;17181;51.002;4.096;2023-02-22T12:23:50;12.80;99.90
30385;DHT22;17181;51.002;4.096;2023-02-22T12:26:40;12.90;99.90
30385;DHT22;17181;51.002;4.096;2023-02-22T12:31:48;13.00;99.90
30385;DHT22;17181;51.002;4.096;2023-02-22T12:37:06;13.00;99.90
30385;DHT22;17181;51.002;4.096;2023-02-22T12:42:29;13.10;99.90
30385;DHT22;17181;51.002;4.096;2023-02-22T12:45:08;13.10;99.90
30385;DHT22;17181;51.002;4.096;2023-02-22T12:47:41;13.10;99.90
30385;DHT22;17181;51.002;4.096;2023-02-22T12:50:20;13.10;99.90
30385;DHT22;17181;51.002;4.096;2023-02-22T12:55:30;13.00;99.90
30385;DHT22;17181;51.002;4.096;2023-02-22T13:01:05;13.00;99.90
30385;DHT22;17181;51.002;4.096;2023-02-22T13:03:38;13.00;99.90
30385;DHT22;17181;51.002;4.096;2023-02-22T13:12:07;12.70;99.90
30385;DHT22;17181;51.002;4.096;2023-02-22T13:17:40;12.50;99.90
30385;DHT22;17181;51.002;4.096;2023-02-22T13:20:26;12.40;99.90
30385;DHT22;17181;51.002;4.096;2023-02-22T13:23:24;12.40;99.90
30385;DHT22;17181;51.002;4.096;2023-02-22T13:26:09;12.30;99.90
30385;DHT22;17181;51.002;4.096;2023-02-22T13:28:42;12.20;99.90
30385;DHT22;17181;51.002;4.096;2023-02-22T13:31:31;12.20;99.90
30385;DHT22;17181;51.002;4.096;2023-02-22T13:48:07;12.00;99.90
30385;DHT22;17181;51.002;4.096;2023-02-22T13:50:51;11.90;99.90
30385;DHT22;17181;51.002;4.096;2023-02-22T13:53:27;11.80;99.90
30385;DHT22;17181;51.002;4.096;2023-02-22T13:55:57;11.80;99.90
30385;DHT22;17181;51.002;4.096;2023-02-22T13:58:25;11.80;99.90
30385;DHT22;17181;51.002;4.096;2023-02-22T14:03:30;11.80;99.90
30385;DHT22;17181;51.002;4.096;2023-02-22T14:06:01;11.80;99.90
30385;DHT22;17181;51.002;4.096;2023-02-22T14:11:00;11.70;99.90
30385;DHT22;17181;51.002;4.096;2023-02-22T14:13:31;11.60;99.90
30385;DHT22;17181;51.002;4.096;2023-02-22T14:18:43;11.50;99.90
30385;DHT22;17181;51.002;4.096;2023-02-22T14:21:16;11.50;99.90
30385;DHT22;17181;51.002;4.096;2023-02-22T14:23:51;11.50;99.90
30385;DHT22;17181;51.002;4.096;2023-02-22T14:26:33;11.40;99.90
30385;DHT22;17181;51.002;4.096;2023-02-22T14:34:16;11.40;99.90
30385;DHT22;17181;51.002;4.096;2023-02-22T14:37:02;11.40;99.90
30385;DHT22;17181;51.002;4.096;2023-02-22T14:39:45;11.40;99.90
30385;DHT22;17181;51.002;4.096;2023-02-22T14:42:20;11.30;99.90
30385;DHT22;17181;51.002;4.096;2023-02-22T14:44:52;11.30;99.90
30385;DHT22;17181;51.002;4.096;2023-02-22T14:47:27;11.30;99.90
30385;DHT22;17181;51.002;4.096;2023-02-22T14:50:02;11.30;99.90
30385;DHT22;17181;51.002;4.096;2023-02-22T14:52:32;11.40;99.90
30385;DHT22;17181;51.002;4.096;2023-02-22T14:55:11;11.40;99.90
30385;DHT22;17181;51.002;4.096;2023-02-22T14:57:59;11.40;99.90
30385;DHT22;17181;51.002;4.096;2023-02-22T15:00:42;11.40;99.90
30385;DHT22;17181;51.002;4.096;2023-02-22T15:03:24;11.40;99.90
30385;DHT22;17181;51.002;4.096;2023-02-22T15:05:51;11.40;99.90
30385;DHT22;17181;51.002;4.096;2023-02-22T15:08:17;11.40;99.90
30385;DHT22;17181;51.002;4.096;2023-02-22T15:10:51;11.40;99.90
30385;DHT22;17181;51.002;4.096;2023-02-22T15:13:24;11.30;99.90
30385;DHT22;17181;51.002;4.096;2023-02-22T15:15:59;11.30;99.90
30385;DHT22;17181;51.002;4.096;2023-02-22T15:18:29;11.30;99.90
30385;DHT22;17181;51.002;4.096;2023-02-22T15:21:03;11.20;99.90
30385;DHT22;17181;51.002;4.096;2023-02-22T15:26:22;11.20;99.90
30385;DHT22;17181;51.002;4.096;2023-02-22T15:28:56;11.20;99.90
30385;DHT22;17181;51.002;4.096;2023-02-22T15:31:30;11.20;99.90
30385;DHT22;17181;51.002;4.096;2023-02-22T15:33:56;11.20;99.90
30385;DHT22;17181;51.002;4.096;2023-02-22T15:36:26;11.20;99.90
30385;DHT22;17181;51.002;4.096;2023-02-22T15:38:53;11.20;99.90
30385;DHT22;17181;51.002;4.096;2023-02-22T15:41:28;11.30;99.90
30385;DHT22;17181;51.002;4.096;2023-02-22T15:44:08;11.30;99.90
30385;DHT22;17181;51.002;4.096;2023-02-22T15:46:39;11.30;99.90
30385;DHT22;17181;51.002;4.096;2023-02-22T15:51:39;11.30;99.90
30385;DHT22;17181;51.002;4.096;2023-02-22T15:54:06;11.30;99.90
30385;DHT22;17181;51.002;4.096;2023-02-22T15:56:49;11.30;99.90
30385;DHT22;17181;51.002;4.096;2023-02-22T15:59:20;11.30;99.90
30385;DHT22;17181;51.002;4.096;2023-02-22T16:01:54;11.30;99.90
30385;DHT22;17181;51.002;4.096;2023-02-22T16:04:23;11.20;99.90
30385;DHT22;17181;51.002;4.096;2023-02-22T16:06:52;11.20;99.90
30385;DHT22;17181;51.002;4.096;2023-02-22T16:09:26;11.20;99.90
30385;DHT22;17181;51.002;4.096;2023-02-22T16:12:26;11.10;99.90
30385;DHT22;17181;51.002;4.096;2023-02-22T16:14:53;11.20;99.90
30385;DHT22;17181;51.002;4.096;2023-02-22T16:22:40;11.10;99.90
30385;DHT22;17181;51.002;4.096;2023-02-22T16:27:47;11.10;99.90
30385;DHT22;17181;51.002;4.096;2023-02-22T16:32:53;11.10;99.90
30385;DHT22;17181;51.002;4.096;2023-02-22T16:35:19;11.10;99.90
30385;DHT22;17181;51.002;4.096;2023-02-22T16:37:50;11.10;99.90
30385;DHT22;17181;51.002;4.096;2023-02-22T16:40:38;11.10;99.90
30385;DHT22;17181;51.002;4.096;2023-02-22T16:43:12;11.10;99.90
30385;DHT22;17181;51.002;4.096;2023-02-22T16:45:38;11.10;99.90
30385;DHT22;17181;51.002;4.096;2023-02-22T16:48:24;11.10;99.90
30385;DHT22;17181;51.002;4.096;2023-02-22T16:50:52;11.10;99.90
30385;DHT22;17181;51.002;4.096;2023-02-22T16:53:22;11.10;99.90
30385;DHT22;17181;51.002;4.096;2023-02-22T16:55:49;11.10;99.90
30385;DHT22;17181;51.002;4.096;2023-02-22T16:58:23;11.10;99.90
30385;DHT22;17181;51.002;4.096;2023-02-22T17:00:53;11.10;99.90
30385;DHT22;17181;51.002;4.096;2023-02-22T17:03:19;11.20;99.90
30385;DHT22;17181;51.002;4.096;2023-02-22T17:05:45;11.20;99.90
30385;DHT22;17181;51.002;4.096;2023-02-22T17:08:11;11.20;99.90
30385;DHT22;17181;51.002;4.096;2023-02-22T17:10:37;11.20;99.90
30385;DHT22;17181;51.002;4.096;2023-02-22T17:13:05;11.20;99.90
30385;DHT22;17181;51.002;4.096;2023-02-22T17:15:33;11.20;99.90
30385;DHT22;17181;51.002;4.096;2023-02-22T17:18:10;11.20;99.90
30385;DHT22;17181;51.002;4.096;2023-02-22T17:20:38;11.20;99.90
30385;DHT22;17181;51.002;4.096;2023-02-22T17:23:06;11.20;99.90
30385;DHT22;17181;51.002;4.096;2023-02-22T17:25:41;11.20;99.90
30385;DHT22;17181;51.002;4.096;2023-02-22T17:28:08;11.20;99.90
30385;DHT22;17181;51.002;4.096;2023-02-22T17:30:34;11.20;99.90
30385;DHT22;17181;51.002;4.096;2023-02-22T17:33:02;11.30;99.90
30385;DHT22;17181;51.002;4.096;2023-02-22T17:35:31;11.20;99.90
30385;DHT22;17181;51.002;4.096;2023-02-22T17:37:58;11.20;99.90
30385;DHT22;17181;51.002;4.096;2023-02-22T17:40:25;11.20;99.90
30385;DHT22;17181;51.002;4.096;2023-02-22T17:42:51;11.30;99.90
30385;DHT22;17181;51.002;4.096;2023-02-22T17:45:21;11.30;99.90
30385;DHT22;17181;51.002;4.096;2023-02-22T17:47:49;11.30;99.90
30385;DHT22;17181;51.002;4.096;2023-02-22T17:50:16;11.30;99.90
30385;DHT22;17181;51.002;4.096;2023-02-22T17:52:42;11.30;99.90
30385;DHT22;17181;51.002;4.096;2023-02-22T17:55:10;11.30;99.90
30385;DHT22;17181;51.002;4.096;2023-02-22T17:57:37;11.30;99.90
30385;DHT22;17181;51.002;4.096;2023-02-22T18:00:05;11.30;99.90
30385;DHT22;17181;51.002;4.096;2023-02-22T18:02:39;11.20;99.90
30385;DHT22;17181;51.002;4.096;2023-02-22T18:05:07;11.30;99.90
30385;DHT22;17181;51.002;4.096;2023-02-22T18:07:33;11.30;99.90
30385;DHT22;17181;51.002;4.096;2023-02-22T18:09:59;11.20;99.90
30385;DHT22;17181;51.002;4.096;2023-02-22T18:12:25;11.20;99.90
30385;DHT22;17181;51.002;4.096;2023-02-22T18:14:52;11.20;99.90
30385;DHT22;17181;51.002;4.096;2023-02-22T18:17:17;11.20;99.90
30385;DHT22;17181;51.002;4.096;2023-02-22T18:19:43;11.20;99.90
30385;DHT22;17181;51.002;4.096;2023-02-22T18:22:09;11.20;99.90
30385;DHT22;17181;51.002;4.096;2023-02-22T18:24:35;11.20;99.90
30385;DHT22;17181;51.002;4.096;2023-02-22T18:27:00;11.30;99.90
30385;DHT22;17181;51.002;4.096;2023-02-22T18:29:31;11.20;99.90
30385;DHT22;17181;51.002;4.096;2023-02-22T18:31:57;11.30;99.90
30385;DHT22;17181;51.002;4.096;2023-02-22T18:34:23;11.30;99.90
30385;DHT22;17181;51.002;4.096;2023-02-22T18:36:53;11.30;99.90
30385;DHT22;17181;51.002;4.096;2023-02-22T18:39:19;11.30;99.90
30385;DHT22;17181;51.002;4.096;2023-02-22T18:41:45;11.20;99.90
30385;DHT22;17181;51.002;4.096;2023-02-22T18:44:16;11.30;99.90
30385;DHT22;17181;51.002;4.096;2023-02-22T18:46:42;11.20;99.90
30385;DHT22;17181;51.002;4.096;2023-02-22T18:49:11;11.20;99.90
30385;DHT22;17181;51.002;4.096;2023-02-22T18:51:37;11.20;99.90
30385;DHT22;17181;51.002;4.096;2023-02-22T18:54:04;11.20;99.90
30385;DHT22;17181;51.002;4.096;2023-02-22T18:56:30;11.20;99.90
30385;DHT22;17181;51.002;4.096;2023-02-22T18:59:02;11.20;99.90
30385;DHT22;17181;51.002;4.096;2023-02-22T19:01:29;11.10;99.90
30385;DHT22;17181;51.002;4.096;2023-02-22T19:03:55;11.10;99.90
30385;DHT22;17181;51.002;4.096;2023-02-22T19:06:21;11.20;99.90
30385;DHT22;17181;51.002;4.096;2023-02-22T19:08:47;11.10;99.90
30385;DHT22;17181;51.002;4.096;2023-02-22T19:11:22;11.10;99.90
30385;DHT22;17181;51.002;4.096;2023-02-22T19:13:51;11.10;99.90
30385;DHT22;17181;51.002;4.096;2023-02-22T19:16:19;11.10;99.90
30385;DHT22;17181;51.002;4.096;2023-02-22T19:18:46;11.10;99.90
30385;DHT22;17181;51.002;4.096;2023-02-22T19:21:12;11.10;99.90
30385;DHT22;17181;51.002;4.096;2023-02-22T19:23:39;11.00;99.90
30385;DHT22;17181;51.002;4.096;2023-02-22T19:26:11;11.00;99.90
30385;DHT22;17181;51.002;4.096;2023-02-22T19:28:37;11.00;99.90
30385;DHT22;17181;51.002;4.096;2023-02-22T19:31:30;11.00;99.90
30385;DHT22;17181;51.002;4.096;2023-02-22T19:34:06;11.00;99.90
30385;DHT22;17181;51.002;4.096;2023-02-22T19:36:40;11.10;99.90
30385;DHT22;17181;51.002;4.096;2023-02-22T19:39:07;11.10;99.90
30385;DHT22;17181;51.002;4.096;2023-02-22T19:41:33;11.10;99.90
30385;DHT22;17181;51.002;4.096;2023-02-22T19:44:00;11.10;99.90
30385;DHT22;17181;51.002;4.096;2023-02-22T19:46:28;11.10;99.90
30385;DHT22;17181;51.002;4.096;2023-02-22T19:48:54;11.10;99.90
30385;DHT22;17181;51.002;4.096;2023-02-22T19:51:21;11.10;99.90
30385;DHT22;17181;51.002;4.096;2023-02-22T19:53:53;11.10;99.90
30385;DHT22;17181;51.002;4.096;2023-02-22T19:56:21;11.00;99.90
30385;DHT22;17181;51.002;4.096;2023-02-22T19:58:53;11.10;99.90
30385;DHT22;17181;51.002;4.096;2023-02-22T20:01:25;11.00;99.90
30385;DHT22;17181;51.002;4.096;2023-02-22T20:03:53;11.00;99.90
30385;DHT22;17181;51.002;4.096;2023-02-22T20:06:26;11.00;99.90
30385;DHT22;17181;51.002;4.096;2023-02-22T20:08:56;11.00;99.90
30385;DHT22;17181;51.002;4.096;2023-02-22T20:11:23;10.90;99.90
30385;DHT22;17181;51.002;4.096;2023-02-22T20:13:49;10.90;99.90
30385;DHT22;17181;51.002;4.096;2023-02-22T20:16:15;10.90;99.90
30385;DHT22;17181;51.002;4.096;2023-02-22T20:18:45;10.90;99.90
30385;DHT22;17181;51.002;4.096;2023-02-22T20:21:33;10.80;99.90
30385;DHT22;17181;51.002;4.096;2023-02-22T20:24:00;10.80;99.90
30385;DHT22;17181;51.002;4.096;2023-02-22T20:26:27;10.80;99.90
30385;DHT22;17181;51.002;4.096;2023-02-22T20:28:54;10.80;99.90
30385;DHT22;17181;51.002;4.096;2023-02-22T20:31:21;10.80;99.90
30385;DHT22;17181;51.002;4.096;2023-02-22T20:33:51;10.80;99.90
30385;DHT22;17181;51.002;4.096;2023-02-22T20:36:18;10.80;99.90
30385;DHT22;17181;51.002;4.096;2023-02-22T20:38:44;10.80;99.90
30385;DHT22;17181;51.002;4.096;2023-02-22T20:41:15;10.80;99.90
30385;DHT22;17181;51.002;4.096;2023-02-22T20:43:44;10.80;99.90